Time;durP1;ratioP1;P1;durP2;ratioP2;P2;SDS_P1;SDS_P2;PMS_P1;PMS_P2;Temp;Humidity;BMP_temperature;BMP_pressure;BME280_temperature;BME280_humidity;BME280_pressure;Samples;Min_cycle;Max_cycle;Signal;HPM_P1;HPM_P2
2022/05/04 00:00:41;;;;;;;19.05;9.82;;;11.30;99.90;;;;;;5026161;28;20207;-77
2022/05/04 00:03:09;;;;;;;20.88;10.85;;;11.40;99.90;;;;;;5028530;28;20168;-77
2022/05/04 00:05:38;;;;;;;15.60;8.93;;;11.40;99.90;;;;;;5028000;28;20252;-77
2022/05/04 00:08:06;;;;;;;25.85;10.32;;;11.30;99.90;;;;;;5027684;28;20215;-77
2022/05/04 00:10:32;;;;;;;12.27;8.73;;;11.40;99.90;;;;;;5025609;28;20200;-77
2022/05/04 00:13:01;;;;;;;18.48;9.35;;;11.40;99.90;;;;;;5026768;28;20176;-77
2022/05/04 00:15:29;;;;;;;21.08;9.10;;;11.30;99.90;;;;;;5025732;28;20284;-77
2022/05/04 00:17:55;;;;;;;16.85;9.30;;;11.30;99.90;;;;;;5026224;28;20199;-77
2022/05/04 00:20:23;;;;;;;17.15;9.02;;;11.60;99.90;;;;;;5026383;28;20195;-77
2022/05/04 00:22:51;;;;;;;18.27;8.93;;;11.70;99.90;;;;;;5025492;28;20227;-76
2022/05/04 00:25:17;;;;;;;22.75;9.07;;;11.70;99.90;;;;;;5025418;28;20280;-77
2022/05/04 00:27:43;;;;;;;22.92;9.73;;;11.70;99.90;;;;;;5025692;28;20165;-77
2022/05/04 00:30:12;;;;;;;17.38;8.25;;;11.80;99.90;;;;;;5021976;28;20232;-77
2022/05/04 00:32:39;;;;;;;26.15;9.55;;;11.80;99.90;;;;;;5038959;28;20625;-77
2022/05/04 00:35:05;;;;;;;19.00;10.07;;;11.60;99.90;;;;;;5024199;28;20212;-77
2022/05/04 00:37:31;;;;;;;14.75;9.52;;;11.70;99.90;;;;;;5023068;28;20191;-77
2022/05/04 00:39:57;;;;;;;18.00;9.05;;;11.60;99.90;;;;;;5019843;28;20165;-77
2022/05/04 00:42:23;;;;;;;17.83;9.68;;;11.50;99.90;;;;;;5017776;28;20235;-77
2022/05/04 00:44:50;;;;;;;19.60;9.27;;;11.50;99.90;;;;;;5016648;28;20203;-77
2022/05/04 00:47:16;;;;;;;20.52;10.82;;;11.40;99.90;;;;;;5016363;28;20169;-77
2022/05/04 00:49:49;;;;;;;20.85;9.55;;;11.40;99.90;;;;;;5017724;28;20188;-77
2022/05/04 00:52:18;;;;;;;23.23;9.35;;;11.50;99.90;;;;;;5016534;28;20235;-77
2022/05/04 00:54:47;;;;;;;17.30;9.02;;;11.70;99.90;;;;;;5017508;28;20168;-77
2022/05/04 00:57:14;;;;;;;18.98;9.25;;;11.80;99.90;;;;;;5018047;28;20168;-77
2022/05/04 00:59:42;;;;;;;13.57;9.07;;;11.60;99.90;;;;;;5017164;28;20183;-77
2022/05/04 01:02:08;;;;;;;22.52;10.35;;;11.40;99.90;;;;;;5016713;28;20251;-76
2022/05/04 01:04:35;;;;;;;21.45;9.18;;;11.40;99.90;;;;;;5038175;28;20203;-77
2022/05/04 01:07:01;;;;;;;15.82;8.98;;;11.40;99.90;;;;;;5021010;28;20157;-76
2022/05/04 01:09:34;;;;;;;23.60;10.43;;;11.50;99.90;;;;;;5022569;28;20254;-77
2022/05/04 01:12:00;;;;;;;33.30;9.77;;;11.50;99.90;;;;;;5021761;28;20199;-77
2022/05/04 01:14:26;;;;;;;27.95;9.70;;;11.70;99.90;;;;;;5022402;28;20176;-77
2022/05/04 01:16:52;;;;;;;18.38;10.05;;;11.80;99.90;;;;;;5022588;28;20263;-77
2022/05/04 01:19:19;;;;;;;17.85;10.05;;;11.60;99.90;;;;;;5022304;28;20662;-77
2022/05/04 01:21:49;;;;;;;18.13;10.48;;;11.50;99.90;;;;;;5021607;28;20184;-77
2022/05/04 01:24:14;;;;;;;19.10;10.25;;;11.30;99.90;;;;;;5020938;28;20160;-77
2022/05/04 01:26:40;;;;;;;22.00;10.25;;;11.30;99.90;;;;;;5022716;28;20664;-77
2022/05/04 01:29:10;;;;;;;19.48;9.52;;;11.10;99.90;;;;;;5021834;28;20203;-77
2022/05/04 01:31:37;;;;;;;14.48;9.27;;;11.20;99.90;;;;;;5020878;28;20185;-77
2022/05/04 01:34:04;;;;;;;23.92;9.07;;;11.20;99.90;;;;;;5021016;28;20165;-77
2022/05/04 01:36:34;;;;;;;16.73;9.43;;;11.20;99.90;;;;;;5022090;28;20185;-77
2022/05/04 01:39:00;;;;;;;21.23;8.95;;;11.10;99.90;;;;;;5021849;28;20187;-77
2022/05/04 01:44:22;;;;;;;19.42;9.25;;;10.80;99.90;;;;;;5022200;28;20652;-75
2022/05/04 01:46:48;;;;;;;19.13;8.90;;;10.70;99.90;;;;;;5021165;28;20188;-76
2022/05/04 01:49:14;;;;;;;17.30;9.30;;;10.60;99.90;;;;;;5020238;28;20279;-76
2022/05/04 01:51:39;;;;;;;16.08;9.40;;;10.80;99.90;;;;;;5021544;28;20594;-76
2022/05/04 01:54:10;;;;;;;24.85;10.00;;;10.60;99.90;;;;;;5021391;28;20215;-76
2022/05/04 01:56:38;;;;;;;22.15;10.15;;;10.50;99.90;;;;;;5019501;28;20653;-76
2022/05/04 01:59:09;;;;;;;15.57;8.88;;;10.50;99.90;;;;;;5022765;28;20193;-76
2022/05/04 02:01:37;;;;;;;18.23;8.57;;;10.40;99.90;;;;;;5017421;28;20184;-76
2022/05/04 02:04:04;;;;;;;16.92;9.35;;;10.30;99.90;;;;;;5018675;28;20164;-75
2022/05/04 02:06:37;;;;;;;20.08;8.75;;;10.40;99.90;;;;;;5021263;28;20198;-75
2022/05/04 02:09:04;;;;;;;20.52;9.43;;;10.30;99.90;;;;;;5020480;28;20625;-76
2022/05/04 02:11:35;;;;;;;14.60;9.35;;;10.50;99.90;;;;;;5020462;28;20161;-76
2022/05/04 02:14:02;;;;;;;15.55;9.88;;;10.50;99.90;;;;;;5019494;28;20648;-76
2022/05/04 02:16:35;;;;;;;19.80;9.43;;;10.40;99.90;;;;;;5016324;28;20699;-75
2022/05/04 02:19:04;;;;;;;17.45;9.02;;;10.40;99.90;;;;;;5019241;28;20637;-75
2022/05/04 02:21:29;;;;;;;18.70;9.23;;;10.30;99.90;;;;;;5019989;28;20180;-75
2022/05/04 02:23:56;;;;;;;27.42;9.43;;;10.30;99.90;;;;;;5020007;28;20173;-76
2022/05/04 02:26:25;;;;;;;22.17;10.77;;;10.40;99.90;;;;;;5020495;28;20267;-76
2022/05/04 02:28:51;;;;;;;16.30;9.38;;;10.40;99.90;;;;;;5021113;28;20203;-75
2022/05/04 02:31:17;;;;;;;15.27;9.23;;;10.30;99.90;;;;;;5020392;28;20178;-76
2022/05/04 02:33:44;;;;;;;16.58;10.15;;;10.40;99.90;;;;;;5020596;28;20215;-75
2022/05/04 02:39:00;;;;;;;27.80;10.38;;;10.40;99.90;;;;;;5021197;28;20820;-76
2022/05/04 02:41:27;;;;;;;30.27;12.13;;;10.30;99.90;;;;;;5021160;28;20219;-76
2022/05/04 02:43:53;;;;;;;34.80;10.90;;;10.20;99.90;;;;;;5020536;28;20167;-75
2022/05/04 02:46:20;;;;;;;32.28;11.07;;;10.30;99.90;;;;;;5020098;28;20271;-76
2022/05/04 02:49:08;;;;;;;18.50;10.10;;;10.40;99.90;;;;;;5020331;28;20220;-76
2022/05/04 02:51:34;;;;;;;19.60;10.50;;;10.40;99.90;;;;;;5025146;28;20189;-75
2022/05/04 02:54:03;;;;;;;18.67;10.05;;;10.40;99.90;;;;;;5026743;28;20267;-76
2022/05/04 02:56:30;;;;;;;18.80;10.43;;;10.50;99.90;;;;;;5025633;28;20227;-75
2022/05/04 02:59:02;;;;;;;21.55;10.88;;;10.60;99.90;;;;;;5025104;28;20169;-76
2022/05/04 03:04:17;;;;;;;24.60;10.93;;;10.70;99.90;;;;;;5025100;28;20179;-76
2022/05/04 03:06:44;;;;;;;19.20;11.02;;;10.50;99.90;;;;;;5024363;28;20204;-76
2022/05/04 03:09:15;;;;;;;16.88;10.50;;;10.50;99.90;;;;;;5025531;28;20194;-76
2022/05/04 03:11:57;;;;;;;22.25;10.20;;;10.40;99.90;;;;;;5025537;28;20208;-76
2022/05/04 03:14:24;;;;;;;30.98;11.95;;;10.40;99.90;;;;;;5025209;28;20176;-76
2022/05/04 03:16:52;;;;;;;22.73;11.40;;;10.60;99.90;;;;;;5025251;28;20276;-76
2022/05/04 03:19:22;;;;;;;22.25;11.63;;;10.50;99.90;;;;;;5025641;28;20179;-75
2022/05/04 03:21:51;;;;;;;23.85;11.65;;;10.60;99.90;;;;;;5025327;28;20165;-75
2022/05/04 03:24:20;;;;;;;18.20;10.77;;;10.60;99.90;;;;;;5024429;28;20169;-80
2022/05/04 03:26:45;;;;;;;24.08;10.77;;;10.50;99.90;;;;;;5037036;28;20215;-75
2022/05/04 03:29:13;;;;;;;25.02;10.60;;;10.60;99.90;;;;;;5028851;28;20254;-76
2022/05/04 03:31:42;;;;;;;25.00;11.35;;;10.40;99.90;;;;;;5028183;28;20184;-76
2022/05/04 03:34:12;;;;;;;22.73;10.95;;;10.40;99.90;;;;;;5028576;28;20165;-76
2022/05/04 03:36:39;;;;;;;23.08;10.70;;;10.40;99.90;;;;;;5028031;28;20251;-76
2022/05/04 03:39:19;;;;;;;15.40;10.52;;;10.40;99.90;;;;;;5028740;28;20211;-76
2022/05/04 03:41:44;;;;;;;23.90;10.57;;;10.40;99.90;;;;;;5028309;28;20171;-76
2022/05/04 03:44:10;;;;;;;19.67;11.50;;;10.40;99.90;;;;;;5027859;28;20252;-76
2022/05/04 03:46:48;;;;;;;19.05;10.40;;;10.20;99.90;;;;;;5029295;28;20192;-76
2022/05/04 03:49:15;;;;;;;28.67;11.02;;;10.30;99.90;;;;;;5028959;28;20203;-75
2022/05/04 03:51:41;;;;;;;19.48;9.95;;;10.20;99.90;;;;;;5028373;28;20161;-76
2022/05/04 03:54:08;;;;;;;26.10;10.70;;;10.10;99.90;;;;;;5028689;28;20172;-76
2022/05/04 03:56:35;;;;;;;18.70;11.30;;;10.20;99.90;;;;;;5028260;28;20223;-76
2022/05/04 03:59:07;;;;;;;19.48;10.65;;;10.10;99.90;;;;;;5028115;28;20219;-76
2022/05/04 04:01:33;;;;;;;19.63;10.30;;;10.10;99.90;;;;;;5027790;28;20364;-75
2022/05/04 04:03:59;;;;;;;20.35;10.95;;;10.10;99.90;;;;;;5027785;28;20157;-76
2022/05/04 04:06:27;;;;;;;20.50;10.20;;;10.00;99.90;;;;;;5028193;28;20195;-75
2022/05/04 04:08:55;;;;;;;18.45;10.70;;;10.10;99.90;;;;;;5028262;28;20228;-79
2022/05/04 04:11:23;;;;;;;25.17;10.60;;;10.20;99.90;;;;;;5027228;28;20246;-76
2022/05/04 04:13:51;;;;;;;23.30;11.25;;;9.90;99.90;;;;;;5030921;28;20171;-75
2022/05/04 04:16:17;;;;;;;19.13;10.10;;;9.90;99.90;;;;;;5033864;28;20243;-75
2022/05/04 04:18:44;;;;;;;25.77;10.95;;;10.00;99.90;;;;;;5037161;28;20183;-74
2022/05/04 04:23:58;;;;;;;23.63;10.43;;;9.80;99.90;;;;;;5038114;28;20198;-77
2022/05/04 04:26:28;;;;;;;16.42;11.05;;;10.00;99.90;;;;;;5039324;28;20233;-75
2022/05/04 04:28:54;;;;;;;20.83;11.15;;;10.00;99.90;;;;;;5038409;28;20184;-77
2022/05/04 04:31:21;;;;;;;21.35;10.40;;;10.10;99.90;;;;;;5039276;28;20176;-75
2022/05/04 04:33:51;;;;;;;20.80;10.38;;;10.10;99.90;;;;;;5039831;28;20144;-77
2022/05/04 04:36:23;;;;;;;19.30;11.20;;;10.30;99.90;;;;;;5038959;28;20216;-76
2022/05/04 04:38:49;;;;;;;17.00;10.73;;;10.40;99.90;;;;;;5038797;28;20153;-76
2022/05/04 04:41:15;;;;;;;19.45;12.20;;;10.40;99.90;;;;;;5037861;28;20159;-76
2022/05/04 04:43:41;;;;;;;25.92;10.32;;;10.40;99.90;;;;;;5038148;28;20204;-77
2022/05/04 04:46:07;;;;;;;21.88;11.25;;;10.40;99.90;;;;;;5030399;28;20550;-76
2022/05/04 04:48:36;;;;;;;16.02;10.80;;;10.40;99.90;;;;;;5030526;28;20256;-76
2022/05/04 04:51:05;;;;;;;13.07;9.55;;;10.40;99.90;;;;;;5027141;28;20200;-75
2022/05/04 04:53:31;;;;;;;24.98;10.13;;;10.20;99.90;;;;;;5026952;28;20168;-76
2022/05/04 04:55:59;;;;;;;21.30;11.05;;;10.30;99.90;;;;;;5027466;28;20201;-75
2022/05/04 04:58:26;;;;;;;14.55;8.93;;;10.50;99.90;;;;;;5026705;28;20186;-76
2022/05/04 05:00:51;;;;;;;18.05;10.55;;;10.50;99.90;;;;;;5026721;28;20219;-77
2022/05/04 05:03:17;;;;;;;28.38;12.13;;;10.70;99.90;;;;;;5026761;28;20164;-75
2022/05/04 05:05:44;;;;;;;18.70;10.40;;;10.80;99.90;;;;;;5026765;28;20235;-75
2022/05/04 05:08:12;;;;;;;22.23;10.60;;;10.70;99.90;;;;;;5026330;28;20668;-75
2022/05/04 05:10:42;;;;;;;18.75;10.18;;;10.80;99.90;;;;;;5026197;28;20200;-75
2022/05/04 05:13:18;;;;;;;18.75;9.82;;;10.70;99.90;;;;;;5016767;28;20244;-76
2022/05/04 05:18:35;;;;;;;28.58;10.25;;;10.50;99.90;;;;;;5026585;28;20226;-76
2022/05/04 05:21:04;;;;;;;15.27;8.80;;;10.70;99.90;;;;;;5026252;28;20199;-76
2022/05/04 05:23:30;;;;;;;21.60;10.15;;;10.90;99.90;;;;;;5024885;28;20169;-75
2022/05/04 05:25:55;;;;;;;18.88;9.55;;;11.00;99.90;;;;;;5026235;28;20256;-76
2022/05/04 05:28:21;;;;;;;29.83;9.70;;;11.00;99.90;;;;;;5026605;28;20175;-75
2022/05/04 05:30:49;;;;;;;14.35;7.97;;;11.10;99.90;;;;;;5026129;28;20215;-76
2022/05/04 05:33:15;;;;;;;13.27;8.70;;;11.10;99.90;;;;;;5025777;28;20271;-76
2022/05/04 05:35:41;;;;;;;19.65;8.10;;;11.20;99.90;;;;;;5026189;28;20191;-75
2022/05/04 05:38:09;;;;;;;14.18;8.48;;;11.30;99.90;;;;;;5041741;28;20188;-76
2022/05/04 05:40:35;;;;;;;19.45;8.73;;;11.20;99.90;;;;;;5025395;28;20228;-76
2022/05/04 05:43:01;;;;;;;29.73;8.95;;;11.20;99.90;;;;;;5025604;28;20161;-76
2022/05/04 05:45:27;;;;;;;27.92;8.32;;;11.30;99.90;;;;;;5025861;28;20197;-75
2022/05/04 05:47:54;;;;;;;34.80;8.63;;;11.60;99.90;;;;;;5040102;28;20187;-75
2022/05/04 05:50:28;;;;;;;17.35;7.97;;;11.50;99.90;;;;;;5024747;28;20228;-76
2022/05/04 05:52:55;;;;;;;11.88;7.75;;;11.40;99.90;;;;;;5023256;28;20161;-82
2022/05/04 05:55:23;;;;;;;15.60;8.25;;;11.40;99.90;;;;;;5023930;28;20258;-88
2022/05/04 05:57:48;;;;;;;25.45;7.88;;;11.50;99.90;;;;;;5020733;28;20574;-76
2022/05/04 06:00:16;;;;;;;15.38;6.78;;;11.90;99.90;;;;;;5020390;28;20176;-79
2022/05/04 06:02:41;;;;;;;18.80;7.97;;;12.00;99.90;;;;;;5031286;28;20534;-91
2022/05/04 06:05:07;;;;;;;25.02;7.97;;;12.00;99.90;;;;;;5017094;28;20206;-77
2022/05/04 06:07:33;;;;;;;19.65;7.35;;;11.90;99.90;;;;;;5013808;28;20176;-84
2022/05/04 06:09:58;;;;;;;15.80;5.75;;;11.90;99.90;;;;;;5018084;28;20629;-77
2022/05/04 06:12:24;;;;;;;12.10;7.13;;;12.00;99.90;;;;;;5015781;28;20647;-84
2022/05/04 06:14:50;;;;;;;15.52;6.35;;;12.10;99.90;;;;;;5016303;28;20189;-81
2022/05/04 06:17:16;;;;;;;26.25;5.82;;;12.20;99.90;;;;;;5017451;28;20256;-80
2022/05/04 06:19:42;;;;;;;12.18;6.78;;;12.20;99.90;;;;;;5018977;28;20199;-81
2022/05/04 06:22:11;;;;;;;18.52;6.85;;;12.20;99.90;;;;;;5016314;28;20168;-76
2022/05/04 06:24:37;;;;;;;25.52;6.45;;;11.90;99.90;;;;;;5016339;28;20190;-89
2022/05/04 06:27:02;;;;;;;18.60;6.47;;;11.70;99.90;;;;;;5013532;28;20243;-84
2022/05/04 06:34:56;;;;;;;21.00;7.63;;;11.90;99.90;;;;;;5015546;28;20239;-82
2022/05/04 06:37:22;;;;;;;13.40;6.63;;;12.20;99.90;;;;;;5017086;28;20164;-77
2022/05/04 06:39:48;;;;;;;24.67;7.68;;;12.00;99.90;;;;;;5019196;28;20223;-84
2022/05/04 06:42:16;;;;;;;15.30;7.35;;;12.10;99.90;;;;;;5015570;28;20164;-77
2022/05/04 06:44:41;;;;;;;13.52;7.70;;;12.10;99.90;;;;;;5021323;28;20168;-77
2022/05/04 06:47:07;;;;;;;18.10;9.05;;;12.30;99.90;;;;;;5019959;28;20176;-76
2022/05/04 06:49:32;;;;;;;21.75;7.30;;;12.50;99.90;;;;;;5021853;28;20195;-77
2022/05/04 06:51:58;;;;;;;22.88;8.10;;;12.50;99.90;;;;;;5019793;28;20251;-77
2022/05/04 06:54:24;;;;;;;17.02;7.07;;;12.50;99.90;;;;;;5022033;28;20595;-76
2022/05/04 06:56:49;;;;;;;30.77;8.55;;;12.60;99.90;;;;;;5012210;28;20246;-76
2022/05/04 06:59:15;;;;;;;18.58;7.03;;;12.50;99.90;;;;;;5012917;28;20534;-76
2022/05/04 07:01:40;;;;;;;18.45;7.90;;;12.20;99.90;;;;;;5013597;28;20668;-76
2022/05/04 07:04:06;;;;;;;14.73;7.50;;;12.20;99.90;;;;;;5015698;28;20200;-76
2022/05/04 07:06:31;;;;;;;21.80;7.13;;;12.40;99.90;;;;;;5016153;28;20246;-77
2022/05/04 07:08:57;;;;;;;12.73;7.82;;;12.70;99.90;;;;;;5016215;28;20183;-77
2022/05/04 07:11:23;;;;;;;26.25;7.40;;;13.30;99.90;;;;;;5015845;28;20291;-77
2022/05/04 07:13:48;;;;;;;26.88;7.35;;;14.20;99.90;;;;;;5015992;28;20181;-76
2022/05/04 07:16:15;;;;;;;18.23;6.47;;;14.80;99.90;;;;;;5020590;28;20188;-76
2022/05/04 07:18:40;;;;;;;16.65;5.93;;;15.90;99.90;;;;;;5015698;28;20195;-78
2022/05/04 07:21:06;;;;;;;14.50;7.00;;;15.80;99.90;;;;;;5016050;28;20164;-83
2022/05/04 07:23:32;;;;;;;21.48;6.35;;;15.60;99.90;;;;;;5015728;28;20168;-81
2022/05/04 07:25:57;;;;;;;14.93;6.32;;;16.10;99.90;;;;;;5030654;28;20270;-77
2022/05/04 07:28:23;;;;;;;15.70;6.18;;;16.50;99.90;;;;;;5015819;28;20251;-77
2022/05/04 07:30:49;;;;;;;15.07;6.18;;;16.30;99.90;;;;;;5013930;28;20775;-77
2022/05/04 07:33:14;;;;;;;11.43;6.30;;;16.50;99.90;;;;;;5014944;28;20168;-77
2022/05/04 07:35:40;;;;;;;24.20;6.20;;;16.60;99.90;;;;;;5016588;28;20216;-77
2022/05/04 07:38:05;;;;;;;22.98;7.05;;;15.80;99.90;;;;;;5015931;28;20259;-77
2022/05/04 07:43:15;;;;;;;12.18;6.20;;;16.00;99.90;;;;;;5015344;28;20239;-77
2022/05/04 07:45:41;;;;;;;18.33;7.10;;;15.70;99.90;;;;;;5015549;28;20189;-76
2022/05/04 07:48:06;;;;;;;25.35;6.78;;;14.90;99.90;;;;;;5014283;28;20533;-77
2022/05/04 07:50:32;;;;;;;22.98;6.85;;;14.60;99.90;;;;;;5015344;28;20215;-77
2022/05/04 07:52:58;;;;;;;27.50;8.15;;;14.90;99.90;;;;;;5017212;28;20176;-77
2022/05/04 07:55:24;;;;;;;11.35;6.95;;;14.90;99.90;;;;;;5015597;28;20192;-77
2022/05/04 07:57:50;;;;;;;18.30;8.32;;;14.70;99.90;;;;;;5015604;28;20238;-77
2022/05/04 08:05:45;;;;;;;29.25;9.45;;;15.00;99.90;;;;;;5015979;28;20544;-78
2022/05/04 08:08:11;;;;;;;30.40;12.60;;;15.00;99.90;;;;;;5015580;28;20582;-82
2022/05/04 08:10:37;;;;;;;24.30;12.90;;;15.10;99.90;;;;;;5016298;28;20211;-86
2022/05/04 08:13:02;;;;;;;24.35;14.60;;;15.10;99.90;;;;;;5014875;28;20165;-80
2022/05/04 08:15:30;;;;;;;31.77;12.82;;;14.80;99.90;;;;;;5015679;28;20691;-81
2022/05/04 08:17:57;;;;;;;29.10;13.25;;;15.00;99.90;;;;;;5031779;28;20169;-82
2022/05/04 08:20:25;;;;;;;35.10;12.65;;;14.90;99.90;;;;;;5034222;28;20172;-84
2022/05/04 08:22:51;;;;;;;40.28;13.38;;;14.90;99.90;;;;;;5016424;28;20164;-83
2022/05/04 08:25:17;;;;;;;25.02;11.45;;;14.90;99.90;;;;;;5016994;28;20181;-83
2022/05/04 08:27:44;;;;;;;20.83;10.90;;;15.00;99.90;;;;;;5016137;28;20227;-80
2022/05/04 08:30:10;;;;;;;20.73;11.38;;;14.80;99.90;;;;;;5016497;28;20260;-80
2022/05/04 08:32:36;;;;;;;25.00;12.88;;;14.90;99.90;;;;;;5017458;28;20284;-85
2022/05/04 08:35:02;;;;;;;28.52;11.73;;;15.00;99.90;;;;;;5017917;28;20630;-78
2022/05/04 08:37:28;;;;;;;22.88;13.15;;;15.30;99.90;;;;;;5016436;28;20165;-90
2022/05/04 08:39:55;;;;;;;31.33;13.93;;;15.50;99.90;;;;;;5015585;28;20540;-79
2022/05/04 08:42:21;;;;;;;25.10;15.13;;;15.70;99.90;;;;;;5018192;28;20176;-82
2022/05/04 08:44:52;;;;;;;22.83;13.20;;;15.90;99.90;;;;;;5015266;28;20223;-84
2022/05/04 08:47:21;;;;;;;30.00;13.70;;;15.70;99.90;;;;;;5031433;28;20173;-87
2022/05/04 08:49:48;;;;;;;57.92;16.50;;;15.50;99.90;;;;;;5015255;28;20704;-84
2022/05/04 08:52:15;;;;;;;25.52;14.23;;;15.80;99.90;;;;;;5014718;28;20545;-90
2022/05/04 08:54:43;;;;;;;22.08;12.73;;;15.90;99.90;;;;;;5016315;28;20164;-81
2022/05/04 08:57:09;;;;;;;19.00;12.05;;;15.50;99.90;;;;;;5015497;28;20219;-79
2022/05/04 08:59:35;;;;;;;23.77;12.05;;;15.50;99.90;;;;;;5015515;28;20168;-80
2022/05/04 09:02:01;;;;;;;25.77;12.15;;;15.50;99.90;;;;;;5015750;28;20192;-86
2022/05/04 09:04:28;;;;;;;23.60;11.73;;;15.60;99.90;;;;;;5016016;28;20200;-84
2022/05/04 09:06:56;;;;;;;26.70;12.70;;;15.80;99.90;;;;;;5031136;28;20192;-85
2022/05/04 09:09:22;;;;;;;27.40;13.23;;;16.30;99.90;;;;;;5030253;28;20180;-87
2022/05/04 09:11:48;;;;;;;17.65;12.35;;;16.30;99.90;;;;;;5032494;28;20655;-86
2022/05/04 09:14:20;;;;;;;22.48;11.43;;;16.20;99.90;;;;;;5014363;28;20168;-86
2022/05/04 09:16:46;;;;;;;18.52;12.27;;;16.40;99.90;;;;;;5029666;28;20224;-85
2022/05/04 09:19:20;;;;;;;17.85;11.45;;;16.40;99.90;;;;;;5029524;28;20188;-86
2022/05/04 09:21:47;;;;;;;26.98;11.48;;;16.30;99.90;;;;;;5015156;28;20164;-87
2022/05/04 09:24:29;;;;;;;31.45;11.82;;;16.40;99.90;;;;;;5030138;28;20232;-86
2022/05/04 09:26:57;;;;;;;20.48;12.15;;;16.70;99.90;;;;;;5015335;28;20169;-84
2022/05/04 09:29:34;;;;;;;22.73;11.07;;;16.50;99.90;;;;;;5015344;28;20184;-85
2022/05/04 09:32:00;;;;;;;22.55;11.65;;;16.50;99.90;;;;;;5017016;28;20184;-86
2022/05/04 09:34:37;;;;;;;24.15;11.48;;;16.60;99.90;;;;;;5018921;28;20215;-85
2022/05/04 09:45:35;;;;;;;25.75;11.63;;;16.50;99.90;;;;;;5017674;28;20203;-86
2022/05/04 09:48:02;;;;;;;41.50;11.90;;;16.00;99.90;;;;;;5020848;28;20171;-86
2022/05/04 09:50:28;;;;;;;22.20;10.60;;;16.10;99.90;;;;;;5020077;28;20204;-86
2022/05/04 09:52:57;;;;;;;17.52;10.98;;;16.10;99.90;;;;;;5017792;28;20172;-86
2022/05/04 09:55:25;;;;;;;21.77;11.30;;;15.90;99.90;;;;;;5017873;28;20287;-85
2022/05/04 09:57:53;;;;;;;166.75;28.10;;;16.10;99.90;;;;;;5030518;28;20254;-87
2022/05/04 10:00:21;;;;;;;18.38;11.52;;;16.40;99.90;;;;;;5030775;28;20168;-84
2022/05/04 10:03:08;;;;;;;22.38;10.40;;;16.40;99.90;;;;;;5020000;28;20163;-80
2022/05/04 10:05:36;;;;;;;16.65;10.32;;;16.50;99.90;;;;;;5015925;28;20242;-77
2022/05/04 10:08:04;;;;;;;11.68;9.13;;;16.70;99.90;;;;;;5015762;28;20185;-82
2022/05/04 10:10:32;;;;;;;18.48;9.13;;;16.80;99.90;;;;;;5015054;28;20262;-77
2022/05/04 10:13:03;;;;;;;22.15;10.00;;;17.00;99.90;;;;;;5016055;28;20176;-78
2022/05/04 10:15:31;;;;;;;20.70;9.50;;;16.90;99.90;;;;;;5014929;28;20196;-86
2022/05/04 10:18:16;;;;;;;17.77;8.73;;;16.60;99.90;;;;;;5028958;28;20168;-83
2022/05/04 10:20:45;;;;;;;19.38;9.20;;;16.50;99.90;;;;;;5012468;28;20503;-79
2022/05/04 10:23:23;;;;;;;23.17;11.50;;;16.30;99.90;;;;;;5014366;28;20176;-81
2022/05/04 10:25:51;;;;;;;13.57;9.88;;;16.10;99.90;;;;;;5014143;28;20192;-80
2022/05/04 10:28:17;;;;;;;23.20;10.38;;;16.20;99.90;;;;;;5014084;28;20160;-87
2022/05/04 10:31:00;;;;;;;29.50;10.73;;;16.10;99.90;;;;;;5014606;28;20295;-88
2022/05/04 10:33:34;;;;;;;20.27;10.77;;;16.30;99.90;;;;;;5013257;28;20157;-82
2022/05/04 10:36:20;;;;;;;16.80;10.18;;;16.20;99.90;;;;;;5013242;28;20202;-83
2022/05/04 10:38:51;;;;;;;27.98;11.35;;;16.50;99.90;;;;;;5019886;28;20180;-88
2022/05/04 10:41:39;;;;;;;15.80;8.90;;;16.60;99.90;;;;;;5020148;28;20251;-86
2022/05/04 10:44:09;;;;;;;12.77;8.63;;;16.70;99.90;;;;;;5020031;28;20243;-79
2022/05/04 10:46:41;;;;;;;12.98;9.02;;;16.70;99.90;;;;;;5019914;28;20206;-80
2022/05/04 10:49:13;;;;;;;16.58;9.07;;;16.60;99.90;;;;;;5020423;28;20519;-85
2022/05/04 10:51:47;;;;;;;15.38;10.15;;;16.60;99.90;;;;;;5022788;28;20188;-86
2022/05/04 10:54:19;;;;;;;16.65;9.30;;;16.70;99.90;;;;;;5023682;28;20211;-82
2022/05/04 10:56:46;;;;;;;17.85;10.38;;;16.90;99.90;;;;;;5024599;28;20620;-82
2022/05/04 10:59:22;;;;;;;13.63;8.98;;;17.10;99.90;;;;;;5024119;28;20168;-81
2022/05/04 11:01:48;;;;;;;16.38;10.02;;;17.30;99.90;;;;;;5047018;28;20667;-81
2022/05/04 11:04:41;;;;;;;33.13;9.98;;;17.10;99.90;;;;;;5043507;28;20167;-81
2022/05/04 11:07:08;;;;;;;29.67;10.23;;;17.10;99.90;;;;;;5041453;28;20167;-81
2022/05/04 11:09:48;;;;;;;14.15;9.38;;;17.10;99.90;;;;;;5060301;28;20202;-78
2022/05/04 11:12:13;;;;;;;16.48;9.13;;;17.10;99.90;;;;;;5059063;28;20187;-79
2022/05/04 11:14:40;;;;;;;20.42;9.52;;;17.20;99.90;;;;;;5040267;28;20172;-86
2022/05/04 11:17:14;;;;;;;37.28;11.60;;;17.10;99.90;;;;;;5055358;28;20532;-82
2022/05/04 11:19:49;;;;;;;28.25;10.38;;;17.20;99.90;;;;;;5039556;28;20627;-83
2022/05/04 11:22:16;;;;;;;16.80;9.30;;;17.10;99.90;;;;;;5040487;28;20243;-86
2022/05/04 11:24:43;;;;;;;18.20;9.75;;;16.80;99.90;;;;;;5039856;28;20250;-80
2022/05/04 11:27:09;;;;;;;19.80;8.98;;;16.90;99.90;;;;;;5040351;28;20588;-79
2022/05/04 11:29:34;;;;;;;25.77;9.20;;;17.10;99.90;;;;;;5054612;28;20203;-81
2022/05/04 11:32:03;;;;;;;19.08;7.25;;;17.40;99.90;;;;;;5055123;28;20263;-85
2022/05/04 11:34:31;;;;;;;12.52;7.43;;;17.40;99.90;;;;;;5054757;28;20168;-89
2022/05/04 11:37:01;;;;;;;12.00;8.02;;;17.50;99.90;;;;;;5040435;28;20164;-85
2022/05/04 11:39:28;;;;;;;12.57;6.60;;;17.60;99.90;;;;;;5039647;28;20195;-84
2022/05/04 11:41:56;;;;;;;16.05;7.25;;;17.60;99.90;;;;;;5039077;28;20160;-80
2022/05/04 11:44:23;;;;;;;21.40;8.98;;;17.70;99.90;;;;;;5039721;28;20175;-80
2022/05/04 11:46:56;;;;;;;22.00;9.35;;;17.80;99.90;;;;;;5039299;28;20194;-81
2022/05/04 11:49:26;;;;;;;10.57;8.77;;;17.90;99.90;;;;;;5034570;28;20175;-80
2022/05/04 11:51:53;;;;;;;12.15;8.00;;;17.50;99.90;;;;;;5035581;28;20194;-81
2022/05/04 11:54:19;;;;;;;17.02;7.07;;;17.70;99.90;;;;;;5039038;28;20168;-84
2022/05/04 11:56:45;;;;;;;22.85;7.88;;;17.80;99.90;;;;;;5035065;28;20199;-78
2022/05/04 11:59:11;;;;;;;10.57;7.00;;;17.70;99.90;;;;;;5034589;28;20164;-78
2022/05/04 12:01:38;;;;;;;14.48;7.25;;;17.60;99.90;;;;;;5034874;28;20190;-79
2022/05/04 12:04:05;;;;;;;11.23;8.35;;;17.50;99.90;;;;;;5035165;28;20570;-80
2022/05/04 12:06:34;;;;;;;12.85;7.60;;;17.80;99.90;;;;;;5053223;28;20195;-81
2022/05/04 12:09:00;;;;;;;28.17;9.80;;;17.80;99.90;;;;;;5035935;28;20259;-88
2022/05/04 12:11:28;;;;;;;20.58;10.10;;;17.90;99.90;;;;;;5051258;28;20583;-83
2022/05/04 12:13:56;;;;;;;18.63;9.60;;;18.10;99.90;;;;;;5035953;28;20171;-89
2022/05/04 12:16:23;;;;;;;12.25;9.48;;;18.20;99.90;;;;;;5036718;28;20194;-85
2022/05/04 12:18:49;;;;;;;17.73;9.23;;;18.20;99.90;;;;;;5036472;28;20609;-84
2022/05/04 12:21:17;;;;;;;14.70;8.93;;;18.20;99.90;;;;;;5035834;28;20194;-85
2022/05/04 12:23:45;;;;;;;17.05;9.48;;;18.40;99.90;;;;;;5035901;28;20247;-82
2022/05/04 12:26:13;;;;;;;24.20;9.38;;;18.60;99.90;;;;;;5056453;28;20192;-85
2022/05/04 12:28:40;;;;;;;14.00;8.45;;;18.60;99.90;;;;;;5042090;28;20163;-81
2022/05/04 12:33:54;;;;;;;13.80;8.18;;;18.30;99.90;;;;;;5035184;28;20186;-81
2022/05/04 12:36:23;;;;;;;20.10;8.18;;;18.30;99.90;;;;;;5036534;28;20274;-80
2022/05/04 12:38:50;;;;;;;19.23;8.75;;;18.10;99.90;;;;;;5017902;28;20177;-82
2022/05/04 12:41:18;;;;;;;10.77;8.70;;;18.20;99.90;;;;;;5030482;28;20223;-87
2022/05/04 12:43:45;;;;;;;22.77;8.85;;;18.40;99.90;;;;;;5015979;28;20168;-85
2022/05/04 12:46:13;;;;;;;14.52;9.13;;;18.50;99.90;;;;;;5031095;28;20196;-82
2022/05/04 12:48:40;;;;;;;10.27;8.07;;;18.50;99.90;;;;;;5015713;28;20247;-83
2022/05/04 12:51:07;;;;;;;13.77;6.75;;;18.60;99.90;;;;;;5015603;28;20211;-82
2022/05/04 12:53:33;;;;;;;5.95;4.65;;;18.60;99.90;;;;;;5015091;28;20164;-83
2022/05/04 12:58:44;;;;;;;12.60;6.07;;;18.70;99.90;;;;;;5014787;28;20242;-82
2022/05/04 13:01:10;;;;;;;12.30;7.18;;;19.00;99.90;;;;;;5014530;28;20192;-85
2022/05/04 13:03:36;;;;;;;22.30;7.63;;;19.10;99.90;;;;;;5013140;28;20164;-84
2022/05/04 13:06:02;;;;;;;18.90;8.50;;;19.40;99.90;;;;;;5014715;28;20259;-82
2022/05/04 13:08:28;;;;;;;11.30;8.98;;;19.50;99.90;;;;;;5015280;28;20183;-82
2022/05/04 13:10:54;;;;;;;8.13;7.20;;;19.90;99.90;;;;;;5028873;28;20303;-83
2022/05/04 13:13:21;;;;;;;12.57;6.95;;;19.70;99.90;;;;;;5028698;28;20212;-85
2022/05/04 13:15:51;;;;;;;18.27;7.05;;;19.90;99.90;;;;;;5014095;28;20550;-84
2022/05/04 13:18:17;;;;;;;9.80;7.80;;;19.90;99.90;;;;;;5029457;28;20169;-85